Time;durP1;ratioP1;P1;durP2;ratioP2;P2;SDS_P1;SDS_P2;PMS_P1;PMS_P2;Temp;Humidity;BMP_temperature;BMP_pressure;BME280_temperature;BME280_humidity;BME280_pressure;Samples;Min_cycle;Max_cycle;Signal;HPM_P1;HPM_P2
2024/01/12 00:00:07;;;;;;;42.20;30.50;;;;;;;;;;484239;28;1271;-72
2024/01/12 00:00:22;;;;;;;40.38;29.42;;;;;;;;;;493605;28;1314;-72
2024/01/12 00:00:38;;;;;;;40.95;30.25;;;;;;;;;;486865;28;1256;-72
2024/01/12 00:00:54;;;;;;;45.00;31.43;;;;;;;;;;485477;28;941;-72
2024/01/12 00:01:11;;;;;;;45.22;31.58;;;;;;;;;;485386;28;1099;-72
2024/01/12 00:01:29;;;;;;;43.80;31.15;;;;;;;;;;495761;28;1855;-72
2024/01/12 00:01:45;;;;;;;42.75;30.15;;;;;;;;;;487031;28;968;-72
2024/01/12 00:02:01;;;;;;;42.25;29.80;;;;;;;;;;486892;28;1664;-72
2024/01/12 00:02:17;;;;;;;41.57;29.80;;;;;;;;;;490237;28;1305;-72
2024/01/12 00:02:32;;;;;;;41.47;30.35;;;;;;;;;;492731;28;987;-72
2024/01/12 00:02:48;;;;;;;42.85;30.83;;;;;;;;;;488657;28;1156;-72
2024/01/12 00:03:04;;;;;;;40.83;29.70;;;;;;;;;;488004;28;1223;-72
2024/01/12 00:03:20;;;;;;;39.83;28.95;;;;;;;;;;493147;28;1997;-72
2024/01/12 00:03:36;;;;;;;44.67;30.70;;;;;;;;;;482848;28;1125;-72
2024/01/12 00:03:52;;;;;;;46.83;32.65;;;;;;;;;;484570;28;1129;-72
2024/01/12 00:04:08;;;;;;;44.45;32.10;;;;;;;;;;484670;28;1203;-73
2024/01/12 00:04:23;;;;;;;45.57;31.70;;;;;;;;;;494436;28;1287;-72
2024/01/12 00:04:39;;;;;;;46.65;31.77;;;;;;;;;;486338;28;1256;-72
2024/01/12 00:04:55;;;;;;;45.50;31.95;;;;;;;;;;486875;28;1367;-72
2024/01/12 00:05:10;;;;;;;44.80;32.40;;;;;;;;;;486484;28;1172;-72
2024/01/12 00:05:26;;;;;;;45.22;32.47;;;;;;;;;;498060;28;1269;-72
2024/01/12 00:05:41;;;;;;;45.30;31.58;;;;;;;;;;486439;28;1239;-72
2024/01/12 00:05:57;;;;;;;43.57;30.57;;;;;;;;;;485573;28;1308;-72
2024/01/12 00:06:12;;;;;;;42.70;30.80;;;;;;;;;;488146;28;1036;-72
2024/01/12 00:06:28;;;;;;;43.63;31.07;;;;;;;;;;493165;28;1386;-72
2024/01/12 00:06:45;;;;;;;43.88;31.30;;;;;;;;;;489094;28;1212;-72
2024/01/12 00:07:01;;;;;;;43.33;30.83;;;;;;;;;;486410;28;1431;-72
2024/01/12 00:07:17;;;;;;;42.90;30.63;;;;;;;;;;490276;28;1121;-72
2024/01/12 00:07:33;;;;;;;44.15;31.13;;;;;;;;;;490390;28;966;-72
2024/01/12 00:07:48;;;;;;;44.10;31.08;;;;;;;;;;485989;28;1378;-72
2024/01/12 00:08:04;;;;;;;43.77;31.43;;;;;;;;;;489284;28;1172;-72
2024/01/12 00:08:20;;;;;;;44.00;31.98;;;;;;;;;;493819;28;1052;-72
2024/01/12 00:08:37;;;;;;;44.30;31.52;;;;;;;;;;487033;28;1410;-73
2024/01/12 00:08:53;;;;;;;45.78;31.90;;;;;;;;;;485097;28;1367;-72
2024/01/12 00:09:09;;;;;;;46.13;32.88;;;;;;;;;;486894;28;1322;-72
2024/01/12 00:09:25;;;;;;;48.28;33.22;;;;;;;;;;490976;28;1125;-72
2024/01/12 00:09:43;;;;;;;45.60;32.33;;;;;;;;;;483932;28;1146;-72
2024/01/12 00:09:59;;;;;;;42.13;30.83;;;;;;;;;;487122;28;1263;-72
2024/01/12 00:10:15;;;;;;;43.60;30.77;;;;;;;;;;491563;28;1263;-72
2024/01/12 00:10:31;;;;;;;42.75;30.48;;;;;;;;;;494620;28;957;-72
2024/01/12 00:10:47;;;;;;;40.60;30.23;;;;;;;;;;487639;28;1267;-72
2024/01/12 00:11:03;;;;;;;41.37;30.60;;;;;;;;;;487376;28;1224;-72
2024/01/12 00:11:18;;;;;;;42.35;31.13;;;;;;;;;;494838;28;1172;-72
2024/01/12 00:11:34;;;;;;;45.45;32.60;;;;;;;;;;489770;28;1227;-72
2024/01/12 00:11:50;;;;;;;47.80;33.42;;;;;;;;;;487839;28;1343;-72
2024/01/12 00:12:05;;;;;;;49.50;34.43;;;;;;;;;;490646;28;1303;-72
2024/01/12 00:12:21;;;;;;;49.65;34.45;;;;;;;;;;495121;28;1277;-72
2024/01/12 00:12:37;;;;;;;49.63;34.28;;;;;;;;;;488278;28;1328;-72
2024/01/12 00:12:52;;;;;;;50.03;34.07;;;;;;;;;;491713;28;1377;-72
2024/01/12 00:13:08;;;;;;;47.92;33.25;;;;;;;;;;491747;28;1442;-72
2024/01/12 00:13:24;;;;;;;44.35;32.33;;;;;;;;;;496149;28;1029;-72
2024/01/12 00:13:40;;;;;;;42.58;31.75;;;;;;;;;;489409;28;1350;-72
2024/01/12 00:13:55;;;;;;;47.13;32.40;;;;;;;;;;490690;28;1105;-72
2024/01/12 00:14:14;;;;;;;48.50;32.63;;;;;;;;;;488963;28;1107;-72
2024/01/12 00:14:29;;;;;;;44.80;31.35;;;;;;;;;;492206;28;1054;-72
2024/01/12 00:14:45;;;;;;;45.50;31.53;;;;;;;;;;493440;28;1093;-72
2024/01/12 00:15:03;;;;;;;45.13;31.98;;;;;;;;;;498570;28;1378;-72
2024/01/12 00:15:18;;;;;;;46.08;32.47;;;;;;;;;;501196;28;1391;-72
2024/01/12 00:15:34;;;;;;;45.75;32.22;;;;;;;;;;494373;28;1036;-72
2024/01/12 00:15:50;;;;;;;47.05;32.45;;;;;;;;;;496246;28;1333;-72
2024/01/12 00:16:06;;;;;;;46.88;32.88;;;;;;;;;;496423;28;1083;-73
2024/01/12 00:16:22;;;;;;;45.03;31.75;;;;;;;;;;496771;28;1220;-72
2024/01/12 00:16:38;;;;;;;42.97;30.88;;;;;;;;;;490501;28;929;-72
2024/01/12 00:16:53;;;;;;;43.42;30.77;;;;;;;;;;490651;28;1053;-72
2024/01/12 00:17:09;;;;;;;44.63;31.20;;;;;;;;;;492633;28;1124;-72
2024/01/12 00:17:24;;;;;;;46.63;31.92;;;;;;;;;;499684;28;1420;-72
2024/01/12 00:17:40;;;;;;;47.27;31.77;;;;;;;;;;491987;28;1189;-72
2024/01/12 00:17:56;;;;;;;46.13;31.37;;;;;;;;;;494259;28;1203;-72
2024/01/12 00:18:12;;;;;;;45.03;31.55;;;;;;;;;;496524;28;1214;-72
2024/01/12 00:18:27;;;;;;;45.28;32.17;;;;;;;;;;496825;28;1410;-72
2024/01/12 00:18:43;;;;;;;46.03;32.53;;;;;;;;;;492668;28;1302;-72
2024/01/12 00:18:58;;;;;;;43.78;31.75;;;;;;;;;;491672;28;1144;-72
2024/01/12 00:19:14;;;;;;;42.63;31.27;;;;;;;;;;493125;28;1291;-72
2024/01/12 00:19:30;;;;;;;45.83;32.13;;;;;;;;;;493887;28;1387;-72
2024/01/12 00:19:46;;;;;;;45.60;32.07;;;;;;;;;;487489;28;1125;-72
2024/01/12 00:20:04;;;;;;;43.95;31.23;;;;;;;;;;489210;28;998;-72
2024/01/12 00:20:20;;;;;;;43.25;31.20;;;;;;;;;;494169;28;1146;-72
2024/01/12 00:20:36;;;;;;;43.97;31.80;;;;;;;;;;491357;28;1098;-72
2024/01/12 00:20:52;;;;;;;43.92;31.80;;;;;;;;;;492070;28;1362;-72
2024/01/12 00:21:07;;;;;;;44.30;31.63;;;;;;;;;;492467;28;1316;-72
2024/01/12 00:21:23;;;;;;;45.35;31.58;;;;;;;;;;494660;28;1178;-72
2024/01/12 00:21:38;;;;;;;44.80;30.53;;;;;;;;;;491750;28;907;-72
2024/01/12 00:21:54;;;;;;;42.47;29.63;;;;;;;;;;491246;28;1484;-72
2024/01/12 00:22:10;;;;;;;43.53;31.25;;;;;;;;;;493937;28;1016;-73
2024/01/12 00:22:26;;;;;;;45.60;32.67;;;;;;;;;;498468;28;1223;-72
2024/01/12 00:22:41;;;;;;;45.93;32.83;;;;;;;;;;492499;28;1377;-72
2024/01/12 00:22:57;;;;;;;45.70;32.55;;;;;;;;;;493290;28;1293;-72
2024/01/12 00:23:13;;;;;;;44.30;31.95;;;;;;;;;;494539;28;2082;-72
2024/01/12 00:23:28;;;;;;;42.53;31.43;;;;;;;;;;497093;28;1020;-72
2024/01/12 00:23:44;;;;;;;43.03;32.13;;;;;;;;;;492441;28;1228;-72
2024/01/12 00:24:00;;;;;;;43.08;31.42;;;;;;;;;;490601;28;1195;-72
2024/01/12 00:24:15;;;;;;;40.80;29.90;;;;;;;;;;495722;28;1317;-72
2024/01/12 00:24:31;;;;;;;40.50;30.20;;;;;;;;;;493499;28;1264;-72
2024/01/12 00:24:47;;;;;;;41.90;31.02;;;;;;;;;;491127;28;1235;-72
2024/01/12 00:25:03;;;;;;;43.95;31.48;;;;;;;;;;489292;28;922;-73
2024/01/12 00:25:18;;;;;;;43.60;30.85;;;;;;;;;;496281;28;1496;-72
2024/01/12 00:25:34;;;;;;;41.90;30.43;;;;;;;;;;495346;28;1298;-72
2024/01/12 00:25:49;;;;;;;40.22;30.00;;;;;;;;;;493125;28;1073;-72
2024/01/12 00:26:05;;;;;;;41.83;31.33;;;;;;;;;;490631;28;1316;-72
2024/01/12 00:26:20;;;;;;;44.92;32.63;;;;;;;;;;497470;28;1293;-72
2024/01/12 00:26:36;;;;;;;44.97;31.80;;;;;;;;;;487841;28;1386;-72
2024/01/12 00:26:51;;;;;;;43.50;31.33;;;;;;;;;;488127;28;1394;-72
2024/01/12 00:27:08;;;;;;;43.33;31.60;;;;;;;;;;492439;28;1440;-72
2024/01/12 00:27:23;;;;;;;45.20;31.90;;;;;;;;;;497349;28;1299;-72
2024/01/12 00:27:39;;;;;;;45.53;31.33;;;;;;;;;;491735;28;1126;-72
2024/01/12 00:27:54;;;;;;;44.78;31.45;;;;;;;;;;486003;28;1311;-72
2024/01/12 00:28:10;;;;;;;44.08;31.88;;;;;;;;;;486539;28;1269;-73
2024/01/12 00:28:30;;;;;;;45.10;31.83;;;;;;;;;;495762;28;1179;-73
2024/01/12 00:28:46;;;;;;;45.75;31.45;;;;;;;;;;488378;28;1466;-72
2024/01/12 00:29:02;;;;;;;47.10;32.27;;;;;;;;;;488078;28;1434;-73
2024/01/12 00:29:17;;;;;;;48.22;32.53;;;;;;;;;;494989;28;1129;-72
2024/01/12 00:29:33;;;;;;;47.27;32.17;;;;;;;;;;492251;28;995;-73
2024/01/12 00:29:48;;;;;;;46.00;32.10;;;;;;;;;;489609;28;1255;-73
2024/01/12 00:30:04;;;;;;;47.28;32.17;;;;;;;;;;489860;28;1029;-73
2024/01/12 00:30:20;;;;;;;46.47;32.10;;;;;;;;;;495569;28;1488;-72
2024/01/12 00:30:35;;;;;;;44.40;31.67;;;;;;;;;;495516;28;1174;-72
2024/01/12 00:30:51;;;;;;;44.05;31.98;;;;;;;;;;493982;28;1262;-72
2024/01/12 00:31:06;;;;;;;44.63;31.87;;;;;;;;;;491274;28;1287;-72
2024/01/12 00:31:22;;;;;;;43.37;30.93;;;;;;;;;;500068;28;1483;-72
2024/01/12 00:31:37;;;;;;;45.58;31.33;;;;;;;;;;489923;28;981;-72
2024/01/12 00:31:54;;;;;;;44.07;30.87;;;;;;;;;;492871;28;950;-72
2024/01/12 00:32:09;;;;;;;41.78;30.63;;;;;;;;;;491222;28;946;-72
2024/01/12 00:32:25;;;;;;;43.53;31.90;;;;;;;;;;496822;28;1339;-72
2024/01/12 00:32:40;;;;;;;42.70;31.37;;;;;;;;;;493146;28;1112;-72
2024/01/12 00:32:56;;;;;;;42.92;31.40;;;;;;;;;;488033;28;1119;-73
2024/01/12 00:33:12;;;;;;;44.03;31.75;;;;;;;;;;494024;28;1583;-72
2024/01/12 00:33:27;;;;;;;45.15;31.52;;;;;;;;;;499350;28;1251;-72
2024/01/12 00:33:43;;;;;;;44.67;31.40;;;;;;;;;;493345;28;1324;-72
2024/01/12 00:33:59;;;;;;;42.67;30.90;;;;;;;;;;490581;28;1254;-72
2024/01/12 00:34:14;;;;;;;41.35;30.08;;;;;;;;;;496449;28;1208;-72
2024/01/12 00:34:30;;;;;;;42.77;30.33;;;;;;;;;;494586;28;1113;-73
2024/01/12 00:34:46;;;;;;;43.50;30.73;;;;;;;;;;491051;28;1108;-72
2024/01/12 00:35:01;;;;;;;43.33;31.13;;;;;;;;;;493451;28;1290;-72
2024/01/12 00:35:17;;;;;;;43.23;31.67;;;;;;;;;;494220;28;1282;-72
2024/01/12 00:35:32;;;;;;;42.20;31.13;;;;;;;;;;499343;28;1201;-72
2024/01/12 00:35:48;;;;;;;42.93;30.70;;;;;;;;;;497609;28;1384;-72
2024/01/12 00:36:04;;;;;;;45.53;31.58;;;;;;;;;;500797;28;988;-72
2024/01/12 00:36:20;;;;;;;46.30;32.55;;;;;;;;;;502019;28;1013;-71
2024/01/12 00:36:35;;;;;;;45.10;31.73;;;;;;;;;;497494;28;1133;-72
2024/01/12 00:36:53;;;;;;;43.60;30.33;;;;;;;;;;501552;28;1025;-72
2024/01/12 00:37:09;;;;;;;44.13;30.48;;;;;;;;;;505595;28;1080;-72
2024/01/12 00:37:24;;;;;;;46.90;31.58;;;;;;;;;;503690;28;1243;-72
2024/01/12 00:37:40;;;;;;;47.67;31.90;;;;;;;;;;501537;28;1299;-72
2024/01/12 00:37:56;;;;;;;46.70;31.65;;;;;;;;;;499800;28;1034;-72
2024/01/12 00:38:12;;;;;;;45.80;31.77;;;;;;;;;;507306;28;1283;-72
2024/01/12 00:38:27;;;;;;;45.67;32.00;;;;;;;;;;509644;28;928;-71
2024/01/12 00:38:43;;;;;;;45.83;31.88;;;;;;;;;;503340;28;993;-72
2024/01/12 00:38:58;;;;;;;47.07;31.97;;;;;;;;;;501504;28;1164;-72
2024/01/12 00:39:16;;;;;;;46.10;32.17;;;;;;;;;;501948;28;1504;-73
2024/01/12 00:39:32;;;;;;;44.90;31.80;;;;;;;;;;503334;28;1450;-72
2024/01/12 00:39:48;;;;;;;45.28;31.45;;;;;;;;;;500494;28;1224;-72
2024/01/12 00:40:04;;;;;;;45.55;31.83;;;;;;;;;;501923;28;1244;-72
2024/01/12 00:40:19;;;;;;;44.67;32.17;;;;;;;;;;502652;28;1273;-72
2024/01/12 00:40:35;;;;;;;44.47;31.50;;;;;;;;;;502966;28;1144;-72
2024/01/12 00:40:51;;;;;;;44.00;30.88;;;;;;;;;;500781;28;1686;-72
2024/01/12 00:41:06;;;;;;;43.87;31.17;;;;;;;;;;507518;28;1070;-72
2024/01/12 00:41:23;;;;;;;44.38;31.25;;;;;;;;;;504120;28;1382;-72
2024/01/12 00:41:39;;;;;;;42.97;30.98;;;;;;;;;;507232;28;940;-72
2024/01/12 00:41:54;;;;;;;44.40;30.90;;;;;;;;;;503713;28;1358;-73
2024/01/12 00:42:10;;;;;;;45.03;31.10;;;;;;;;;;506705;28;1224;-72
2024/01/12 00:42:25;;;;;;;43.33;31.58;;;;;;;;;;502792;28;1293;-73
2024/01/12 00:42:41;;;;;;;45.33;31.87;;;;;;;;;;508597;28;1291;-72
2024/01/12 00:42:56;;;;;;;46.38;32.15;;;;;;;;;;511725;28;1172;-72
2024/01/12 00:43:12;;;;;;;44.27;32.10;;;;;;;;;;508355;28;1928;-72
2024/01/12 00:43:27;;;;;;;43.45;31.67;;;;;;;;;;510388;28;1380;-72
2024/01/12 00:43:43;;;;;;;42.87;31.90;;;;;;;;;;505418;28;1172;-72
2024/01/12 00:43:59;;;;;;;43.22;32.03;;;;;;;;;;501919;28;1301;-72
2024/01/12 00:44:15;;;;;;;48.00;32.35;;;;;;;;;;506886;28;1362;-72
2024/01/12 00:44:30;;;;;;;47.60;32.28;;;;;;;;;;510210;28;1125;-72
2024/01/12 00:44:46;;;;;;;42.47;31.67;;;;;;;;;;502765;28;1370;-72
2024/01/12 00:45:03;;;;;;;41.60;30.60;;;;;;;;;;504810;28;1339;-72
2024/01/12 00:45:18;;;;;;;40.90;29.90;;;;;;;;;;501333;28;1275;-72
2024/01/12 00:45:34;;;;;;;41.90;30.43;;;;;;;;;;503624;28;1186;-72
2024/01/12 00:45:50;;;;;;;42.28;30.40;;;;;;;;;;511278;28;1290;-72
2024/01/12 00:46:05;;;;;;;42.42;31.08;;;;;;;;;;508319;28;1291;-72
2024/01/12 00:46:21;;;;;;;44.72;31.85;;;;;;;;;;501199;28;1232;-72
2024/01/12 00:46:37;;;;;;;45.83;31.10;;;;;;;;;;502146;28;940;-72
2024/01/12 00:46:52;;;;;;;43.05;30.30;;;;;;;;;;500833;28;1017;-72
2024/01/12 00:47:08;;;;;;;43.00;30.90;;;;;;;;;;500897;28;1313;-73
2024/01/12 00:47:23;;;;;;;43.47;31.20;;;;;;;;;;506210;28;1224;-72
2024/01/12 00:47:39;;;;;;;43.47;30.42;;;;;;;;;;505750;28;1190;-72
2024/01/12 00:47:54;;;;;;;44.10;30.67;;;;;;;;;;510502;28;1081;-72
2024/01/12 00:48:10;;;;;;;42.88;30.33;;;;;;;;;;505234;28;978;-72
2024/01/12 00:48:25;;;;;;;41.23;29.43;;;;;;;;;;507374;28;1349;-72
2024/01/12 00:48:42;;;;;;;41.08;29.33;;;;;;;;;;508732;28;1167;-72
2024/01/12 00:48:58;;;;;;;43.25;29.65;;;;;;;;;;508503;28;1310;-72
2024/01/12 00:49:13;;;;;;;41.80;29.40;;;;;;;;;;504253;28;1194;-72
2024/01/12 00:49:29;;;;;;;39.83;28.90;;;;;;;;;;506017;28;1053;-72
2024/01/12 00:49:44;;;;;;;40.37;29.53;;;;;;;;;;502887;28;1240;-71
2024/01/12 00:50:00;;;;;;;39.87;29.40;;;;;;;;;;502644;28;985;-72
2024/01/12 00:50:16;;;;;;;38.95;28.92;;;;;;;;;;503103;28;1334;-72
2024/01/12 00:50:31;;;;;;;38.93;28.93;;;;;;;;;;502249;28;1004;-72
2024/01/12 00:50:47;;;;;;;40.63;29.02;;;;;;;;;;504917;28;1230;-72
2024/01/12 00:51:03;;;;;;;43.55;30.50;;;;;;;;;;511526;28;1295;-72
2024/01/12 00:51:18;;;;;;;44.22;31.08;;;;;;;;;;503391;28;1250;-72
2024/01/12 00:51:34;;;;;;;44.50;31.17;;;;;;;;;;502887;28;1001;-72
2024/01/12 00:51:50;;;;;;;45.58;31.52;;;;;;;;;;504699;28;1330;-72
2024/01/12 00:52:05;;;;;;;44.88;31.30;;;;;;;;;;504439;28;928;-72
2024/01/12 00:52:21;;;;;;;43.83;31.07;;;;;;;;;;507706;28;1006;-72
2024/01/12 00:52:36;;;;;;;43.85;30.85;;;;;;;;;;508847;28;1362;-72
2024/01/12 00:52:52;;;;;;;42.73;30.63;;;;;;;;;;504509;28;1230;-72
2024/01/12 00:53:07;;;;;;;42.47;30.45;;;;;;;;;;509509;28;1229;-72
2024/01/12 00:53:23;;;;;;;42.93;30.03;;;;;;;;;;506197;28;1133;-72
2024/01/12 00:53:38;;;;;;;42.67;30.42;;;;;;;;;;508797;28;1393;-71
2024/01/12 00:53:54;;;;;;;43.63;30.80;;;;;;;;;;504596;28;1286;-71
2024/01/12 00:54:10;;;;;;;44.37;31.07;;;;;;;;;;504014;28;1924;-72
2024/01/12 00:54:26;;;;;;;44.75;32.30;;;;;;;;;;504799;28;1335;-72
2024/01/12 00:54:42;;;;;;;43.50;31.50;;;;;;;;;;501949;28;1135;-72
2024/01/12 00:54:59;;;;;;;42.80;30.27;;;;;;;;;;499870;28;1198;-72
2024/01/12 00:55:15;;;;;;;43.65;30.85;;;;;;;;;;501027;28;1051;-72
2024/01/12 00:55:31;;;;;;;43.92;31.35;;;;;;;;;;491034;28;958;-73
2024/01/12 00:55:46;;;;;;;43.17;31.02;;;;;;;;;;485979;28;1476;-73
2024/01/12 00:56:02;;;;;;;44.13;31.20;;;;;;;;;;483334;28;1244;-72
2024/01/12 00:56:18;;;;;;;44.90;31.47;;;;;;;;;;486695;28;1314;-72
2024/01/12 00:56:33;;;;;;;46.03;31.38;;;;;;;;;;484990;28;1005;-72
2024/01/12 00:56:49;;;;;;;45.95;31.58;;;;;;;;;;483016;28;1237;-73
2024/01/12 00:57:05;;;;;;;44.47;31.13;;;;;;;;;;484258;28;1165;-73
2024/01/12 00:57:20;;;;;;;43.93;30.77;;;;;;;;;;487320;28;1184;-72
2024/01/12 00:57:36;;;;;;;42.63;30.45;;;;;;;;;;483868;28;1244;-73
2024/01/12 00:57:51;;;;;;;43.13;30.97;;;;;;;;;;483815;28;1252;-73
2024/01/12 00:58:07;;;;;;;44.13;30.90;;;;;;;;;;482177;28;1101;-73
2024/01/12 00:58:22;;;;;;;44.30;30.80;;;;;;;;;;487491;28;1411;-72
2024/01/12 00:58:38;;;;;;;43.97;31.50;;;;;;;;;;482411;28;1221;-73
2024/01/12 00:58:54;;;;;;;41.70;30.67;;;;;;;;;;484019;28;1196;-74
2024/01/12 00:59:10;;;;;;;42.22;30.48;;;;;;;;;;483802;28;1278;-73
2024/01/12 00:59:25;;;;;;;43.43;30.77;;;;;;;;;;487435;28;1271;-74
2024/01/12 00:59:41;;;;;;;41.63;30.50;;;;;;;;;;485024;28;1228;-73
2024/01/12 00:59:57;;;;;;;42.28;30.63;;;;;;;;;;484462;28;937;-73
2024/01/12 01:00:13;;;;;;;41.90;29.93;;;;;;;;;;485991;28;1167;-72
2024/01/12 01:00:30;;;;;;;42.50;30.00;;;;;;;;;;493184;28;1081;-72
2024/01/12 01:00:46;;;;;;;43.92;30.65;;;;;;;;;;489359;28;1060;-73
2024/01/12 01:01:03;;;;;;;42.10;29.75;;;;;;;;;;488342;28;1329;-73
2024/01/12 01:01:18;;;;;;;41.63;29.00;;;;;;;;;;493660;28;1408;-72
2024/01/12 01:01:34;;;;;;;41.30;29.80;;;;;;;;;;488682;28;1056;-72
2024/01/12 01:01:50;;;;;;;42.22;30.63;;;;;;;;;;486406;28;1841;-72
2024/01/12 01:02:05;;;;;;;41.75;30.02;;;;;;;;;;483670;28;1258;-73
2024/01/12 01:02:21;;;;;;;42.13;29.77;;;;;;;;;;488441;28;1447;-72
2024/01/12 01:02:36;;;;;;;42.95;29.88;;;;;;;;;;483303;28;914;-72
2024/01/12 01:02:52;;;;;;;41.90;29.67;;;;;;;;;;484417;28;1211;-73
2024/01/12 01:03:08;;;;;;;40.90;29.77;;;;;;;;;;484475;28;1349;-73
2024/01/12 01:03:23;;;;;;;39.45;29.58;;;;;;;;;;490213;28;2019;-72
2024/01/12 01:03:39;;;;;;;39.03;29.33;;;;;;;;;;485720;28;1206;-73
2024/01/12 01:03:55;;;;;;;41.97;29.70;;;;;;;;;;484633;28;1166;-72
2024/01/12 01:04:10;;;;;;;42.83;30.08;;;;;;;;;;485784;28;1263;-73
2024/01/12 01:04:26;;;;;;;42.38;30.45;;;;;;;;;;493360;28;1334;-75
2024/01/12 01:04:42;;;;;;;41.73;30.03;;;;;;;;;;486981;28;1049;-72
2024/01/12 01:04:57;;;;;;;41.33;29.75;;;;;;;;;;487695;28;997;-72
2024/01/12 01:05:13;;;;;;;42.03;30.15;;;;;;;;;;485946;28;1355;-74
2024/01/12 01:05:29;;;;;;;44.27;30.80;;;;;;;;;;490459;28;891;-72
2024/01/12 01:05:44;;;;;;;46.55;30.50;;;;;;;;;;484843;28;1275;-73
2024/01/12 01:06:00;;;;;;;44.40;30.08;;;;;;;;;;483426;28;1419;-72
2024/01/12 01:06:16;;;;;;;41.38;30.15;;;;;;;;;;486329;28;965;-72
2024/01/12 01:06:31;;;;;;;42.83;30.53;;;;;;;;;;488571;28;1374;-73
2024/01/12 01:06:47;;;;;;;45.33;30.98;;;;;;;;;;484256;28;1350;-73
2024/01/12 01:07:02;;;;;;;45.57;30.77;;;;;;;;;;484221;28;1090;-73
2024/01/12 01:07:18;;;;;;;43.85;30.35;;;;;;;;;;488589;28;1232;-72
2024/01/12 01:07:36;;;;;;;42.85;30.33;;;;;;;;;;484500;28;1615;-72
2024/01/12 01:07:52;;;;;;;42.22;30.23;;;;;;;;;;484650;28;1379;-73
2024/01/12 01:08:07;;;;;;;41.40;29.80;;;;;;;;;;483960;28;1150;-72
2024/01/12 01:08:23;;;;;;;41.50;30.03;;;;;;;;;;489500;28;1327;-72
2024/01/12 01:08:38;;;;;;;43.40;30.75;;;;;;;;;;483818;28;1229;-72
2024/01/12 01:08:54;;;;;;;43.63;30.53;;;;;;;;;;483466;28;1272;-72
2024/01/12 01:09:10;;;;;;;43.13;29.98;;;;;;;;;;484535;28;1053;-72
2024/01/12 01:09:25;;;;;;;43.30;30.33;;;;;;;;;;492402;28;1071;-72
2024/01/12 01:09:41;;;;;;;43.30;30.48;;;;;;;;;;484408;28;1440;-72
2024/01/12 01:09:56;;;;;;;43.80;31.23;;;;;;;;;;483287;28;1219;-73
2024/01/12 01:10:13;;;;;;;43.17;31.07;;;;;;;;;;485600;28;1211;-72
2024/01/12 01:10:29;;;;;;;42.75;30.48;;;;;;;;;;490339;28;894;-73
2024/01/12 01:10:46;;;;;;;42.95;30.33;;;;;;;;;;486711;28;1377;-72
2024/01/12 01:11:02;;;;;;;41.85;30.10;;;;;;;;;;487157;28;1086;-72
2024/01/12 01:11:17;;;;;;;41.78;30.30;;;;;;;;;;490659;28;1396;-72
2024/01/12 01:11:33;;;;;;;42.45;30.48;;;;;;;;;;489016;28;1315;-72
2024/01/12 01:11:52;;;;;;;44.30;31.10;;;;;;;;;;488681;28;1149;-74
2024/01/12 01:12:08;;;;;;;45.92;32.10;;;;;;;;;;488900;28;1275;-72
2024/01/12 01:12:23;;;;;;;45.28;31.80;;;;;;;;;;494686;28;1117;-73
2024/01/12 01:12:39;;;;;;;45.15;31.25;;;;;;;;;;487963;28;915;-71
2024/01/12 01:12:55;;;;;;;47.60;30.90;;;;;;;;;;486196;28;1419;-72
2024/01/12 01:13:12;;;;;;;46.97;31.03;;;;;;;;;;486094;28;939;-73
2024/01/12 01:13:27;;;;;;;47.75;31.55;;;;;;;;;;491474;28;1569;-72
2024/01/12 01:13:43;;;;;;;45.42;30.70;;;;;;;;;;486108;28;1075;-72
2024/01/12 01:13:59;;;;;;;41.70;30.25;;;;;;;;;;488783;28;1334;-72
2024/01/12 01:14:14;;;;;;;42.83;31.47;;;;;;;;;;490461;28;1148;-71
2024/01/12 01:14:30;;;;;;;45.15;32.33;;;;;;;;;;493077;28;1233;-72
2024/01/12 01:14:46;;;;;;;44.87;32.20;;;;;;;;;;488339;28;1415;-72
2024/01/12 01:15:04;;;;;;;43.08;31.60;;;;;;;;;;488819;28;1270;-72
2024/01/12 01:15:20;;;;;;;43.10;31.27;;;;;;;;;;492288;28;1444;-73
2024/01/12 01:15:35;;;;;;;41.97;30.83;;;;;;;;;;485242;28;1184;-73
2024/01/12 01:15:51;;;;;;;42.15;30.55;;;;;;;;;;485233;28;1040;-73
2024/01/12 01:16:06;;;;;;;42.10;30.33;;;;;;;;;;484977;28;1223;-73
2024/01/12 01:16:23;;;;;;;41.28;30.00;;;;;;;;;;489190;28;1127;-72
2024/01/12 01:16:39;;;;;;;41.75;29.65;;;;;;;;;;485454;28;1009;-72
2024/01/12 01:16:55;;;;;;;42.10;30.35;;;;;;;;;;486490;28;1090;-73
2024/01/12 01:17:11;;;;;;;42.73;30.70;;;;;;;;;;488957;28;1023;-73
2024/01/12 01:17:26;;;;;;;42.72;30.33;;;;;;;;;;490556;28;1393;-74
2024/01/12 01:17:42;;;;;;;41.42;29.35;;;;;;;;;;486130;28;1347;-73
2024/01/12 01:17:58;;;;;;;41.05;29.42;;;;;;;;;;486719;28;1089;-72
2024/01/12 01:18:16;;;;;;;41.65;30.08;;;;;;;;;;486412;28;1388;-72
2024/01/12 01:18:32;;;;;;;41.88;29.85;;;;;;;;;;487658;28;1311;-73
2024/01/12 01:18:47;;;;;;;43.58;30.60;;;;;;;;;;484302;28;1116;-72
2024/01/12 01:19:03;;;;;;;43.70;30.57;;;;;;;;;;483786;28;1252;-73
2024/01/12 01:19:19;;;;;;;42.97;30.08;;;;;;;;;;489773;28;1235;-73
2024/01/12 01:19:35;;;;;;;42.28;30.65;;;;;;;;;;485515;28;1438;-73
2024/01/12 01:19:51;;;;;;;41.87;30.30;;;;;;;;;;485794;28;1254;-72
2024/01/12 01:20:07;;;;;;;42.22;29.80;;;;;;;;;;486019;28;1150;-74
2024/01/12 01:20:23;;;;;;;41.24;29.60;;;;;;;;;;491806;28;1141;-72
2024/01/12 01:20:38;;;;;;;41.47;29.27;;;;;;;;;;486658;28;1105;-73
2024/01/12 01:20:54;;;;;;;42.80;30.13;;;;;;;;;;486669;28;1244;-73
2024/01/12 01:21:10;;;;;;;43.67;30.87;;;;;;;;;;488439;28;1158;-73
2024/01/12 01:21:26;;;;;;;43.25;30.80;;;;;;;;;;493059;28;1007;-73
2024/01/12 01:21:43;;;;;;;42.55;30.50;;;;;;;;;;490315;28;969;-73
2024/01/12 01:21:59;;;;;;;43.03;30.88;;;;;;;;;;489781;28;1383;-73
2024/01/12 01:22:14;;;;;;;44.73;31.63;;;;;;;;;;492705;28;1245;-72
2024/01/12 01:22:33;;;;;;;44.90;31.75;;;;;;;;;;492962;28;1030;-72
2024/01/12 01:22:49;;;;;;;44.15;31.40;;;;;;;;;;487843;28;1481;-74
2024/01/12 01:23:05;;;;;;;43.92;31.15;;;;;;;;;;485762;28;1281;-73
2024/01/12 01:23:20;;;;;;;43.72;31.38;;;;;;;;;;489301;28;2029;-72
2024/01/12 01:23:36;;;;;;;44.40;31.17;;;;;;;;;;484975;28;1085;-73
2024/01/12 01:23:52;;;;;;;42.87;30.77;;;;;;;;;;484521;28;1349;-73
2024/01/12 01:24:07;;;;;;;42.63;30.93;;;;;;;;;;485264;28;1146;-73
2024/01/12 01:24:27;;;;;;;44.88;31.63;;;;;;;;;;490531;28;964;-73
2024/01/12 01:24:42;;;;;;;44.35;31.50;;;;;;;;;;485454;28;1345;-73
2024/01/12 01:24:58;;;;;;;44.90;31.65;;;;;;;;;;484956;28;1080;-73
2024/01/12 01:25:13;;;;;;;44.37;31.90;;;;;;;;;;484560;28;1035;-72
2024/01/12 01:25:29;;;;;;;43.97;31.23;;;;;;;;;;484973;28;1436;-72
2024/01/12 01:25:45;;;;;;;42.22;30.45;;;;;;;;;;483131;28;1310;-72
2024/01/12 01:26:01;;;;;;;40.47;29.70;;;;;;;;;;484543;28;1540;-73
2024/01/12 01:26:16;;;;;;;42.90;30.33;;;;;;;;;;487003;28;980;-73
2024/01/12 01:26:32;;;;;;;44.10;31.00;;;;;;;;;;485223;28;1730;-72
2024/01/12 01:26:48;;;;;;;42.15;30.77;;;;;;;;;;482808;28;1058;-72
2024/01/12 01:27:03;;;;;;;42.83;31.37;;;;;;;;;;484293;28;1157;-72
2024/01/12 01:27:19;;;;;;;42.70;31.10;;;;;;;;;;490388;28;1354;-72
2024/01/12 01:27:34;;;;;;;41.63;30.35;;;;;;;;;;486070;28;1186;-72
2024/01/12 01:27:50;;;;;;;41.50;30.17;;;;;;;;;;484368;28;1394;-73
2024/01/12 01:28:06;;;;;;;42.65;30.65;;;;;;;;;;486759;28;1216;-72
2024/01/12 01:28:21;;;;;;;43.30;31.23;;;;;;;;;;492390;28;1330;-73
2024/01/12 01:28:37;;;;;;;41.35;30.58;;;;;;;;;;488235;28;1167;-72
2024/01/12 01:28:53;;;;;;;41.93;30.43;;;;;;;;;;488133;28;1328;-73
2024/01/12 01:29:08;;;;;;;41.42;30.20;;;;;;;;;;485995;28;1362;-72
2024/01/12 01:29:24;;;;;;;40.58;29.90;;;;;;;;;;491205;28;1247;-73
2024/01/12 01:29:40;;;;;;;41.67;30.23;;;;;;;;;;485407;28;1081;-72
2024/01/12 01:29:55;;;;;;;45.90;30.83;;;;;;;;;;484395;28;968;-72
2024/01/12 01:30:13;;;;;;;46.97;31.15;;;;;;;;;;483518;28;1337;-73
2024/01/12 01:30:29;;;;;;;40.75;30.25;;;;;;;;;;485915;28;1391;-73
2024/01/12 01:30:45;;;;;;;40.13;29.97;;;;;;;;;;483051;28;1177;-73
2024/01/12 01:31:00;;;;;;;41.22;30.65;;;;;;;;;;485057;28;1428;-73
2024/01/12 01:31:16;;;;;;;42.00;30.90;;;;;;;;;;488894;28;1646;-73
2024/01/12 01:31:32;;;;;;;43.00;31.20;;;;;;;;;;490348;28;960;-74
2024/01/12 01:31:48;;;;;;;43.10;30.38;;;;;;;;;;486380;28;1496;-74
2024/01/12 01:32:04;;;;;;;42.05;29.63;;;;;;;;;;485522;28;1304;-73
2024/01/12 01:32:19;;;;;;;42.40;30.43;;;;;;;;;;491380;28;1271;-73
2024/01/12 01:32:35;;;;;;;42.30;30.90;;;;;;;;;;485691;28;1544;-74
2024/01/12 01:32:51;;;;;;;40.85;30.70;;;;;;;;;;483865;28;1403;-73
2024/01/12 01:33:06;;;;;;;42.10;30.97;;;;;;;;;;482344;28;1148;-73
2024/01/12 01:33:22;;;;;;;43.10;30.92;;;;;;;;;;487154;28;927;-73
2024/01/12 01:33:38;;;;;;;42.67;30.77;;;;;;;;;;484158;28;1349;-73
2024/01/12 01:33:53;;;;;;;41.53;29.97;;;;;;;;;;487261;28;1175;-73
2024/01/12 01:34:09;;;;;;;40.63;29.60;;;;;;;;;;486646;28;1125;-72
2024/01/12 01:34:25;;;;;;;41.90;30.52;;;;;;;;;;490037;28;1274;-73
2024/01/12 01:34:40;;;;;;;41.47;30.27;;;;;;;;;;485729;28;1033;-73
2024/01/12 01:34:56;;;;;;;38.13;28.67;;;;;;;;;;484857;28;1354;-73
2024/01/12 01:35:12;;;;;;;37.03;28.65;;;;;;;;;;483136;28;1302;-72